sensor_id;sensor_type;location;lat;lon;timestamp;P1;durP1;ratioP1;P2;durP2;ratioP2
53674;SDS011;39574;50.534;8.500;2022-09-11T00:03:03;14.4;;;11.5;;
53674;SDS011;39574;50.534;8.500;2022-09-11T00:08:03;14.3;;;11.8;;
53674;SDS011;39574;50.534;8.500;2022-09-11T00:13:00;15.2;;;12.1;;
53674;SDS011;39574;50.534;8.500;2022-09-11T00:17:59;14.4;;;11.8;;
53674;SDS011;39574;50.534;8.500;2022-09-11T00:22:58;14.5;;;11.9;;
53674;SDS011;39574;50.534;8.500;2022-09-11T00:27:57;14.8;;;12.3;;
53674;SDS011;39574;50.534;8.500;2022-09-11T00:32:57;15.1;;;12.5;;
53674;SDS011;39574;50.534;8.500;2022-09-11T00:37:56;14.8;;;12.3;;
53674;SDS011;39574;50.534;8.500;2022-09-11T00:42:55;15.0;;;12.5;;
53674;SDS011;39574;50.534;8.500;2022-09-11T00:47:55;15.5;;;12.6;;
53674;SDS011;39574;50.534;8.500;2022-09-11T00:52:55;16.4;;;12.7;;
53674;SDS011;39574;50.534;8.500;2022-09-11T00:57:54;16.3;;;12.6;;
53674;SDS011;39574;50.534;8.500;2022-09-11T01:02:52;14.3;;;11.5;;
53674;SDS011;39574;50.534;8.500;2022-09-11T01:07:52;13.4;;;10.9;;
53674;SDS011;39574;50.534;8.500;2022-09-11T01:12:52;12.0;;;10.0;;
53674;SDS011;39574;50.534;8.500;2022-09-11T01:17:52;12.0;;;10.0;;
53674;SDS011;39574;50.534;8.500;2022-09-11T01:22:52;12.1;;;10.0;;
53674;SDS011;39574;50.534;8.500;2022-09-11T01:27:49;12.3;;;10.1;;
53674;SDS011;39574;50.534;8.500;2022-09-11T01:33:05;11.7;;;9.9;;
53674;SDS011;39574;50.534;8.500;2022-09-11T01:37:47;11.8;;;10.1;;
53674;SDS011;39574;50.534;8.500;2022-09-11T01:42:45;12.2;;;10.1;;
53674;SDS011;39574;50.534;8.500;2022-09-11T01:47:45;12.3;;;10.2;;
53674;SDS011;39574;50.534;8.500;2022-09-11T01:52:46;12.6;;;10.2;;
53674;SDS011;39574;50.534;8.500;2022-09-11T01:57:44;12.8;;;10.1;;
53674;SDS011;39574;50.534;8.500;2022-09-11T02:02:43;12.6;;;10.0;;
53674;SDS011;39574;50.534;8.500;2022-09-11T02:07:43;13.4;;;10.5;;
53674;SDS011;39574;50.534;8.500;2022-09-11T02:12:42;13.9;;;10.9;;
53674;SDS011;39574;50.534;8.500;2022-09-11T02:17:42;13.4;;;10.6;;
53674;SDS011;39574;50.534;8.500;2022-09-11T02:22:39;13.6;;;10.8;;
53674;SDS011;39574;50.534;8.500;2022-09-11T02:27:39;14.1;;;11.1;;
53674;SDS011;39574;50.534;8.500;2022-09-11T02:32:38;13.9;;;10.9;;
53674;SDS011;39574;50.534;8.500;2022-09-11T02:37:41;13.5;;;10.9;;
53674;SDS011;39574;50.534;8.500;2022-09-11T02:42:40;13.8;;;11.1;;
53674;SDS011;39574;50.534;8.500;2022-09-11T02:47:40;13.9;;;11.0;;
53674;SDS011;39574;50.534;8.500;2022-09-11T02:52:38;14.2;;;11.0;;
53674;SDS011;39574;50.534;8.500;2022-09-11T02:57:35;15.5;;;11.9;;
53674;SDS011;39574;50.534;8.500;2022-09-11T03:02:34;15.5;;;12.2;;
53674;SDS011;39574;50.534;8.500;2022-09-11T03:07:33;15.8;;;12.3;;
53674;SDS011;39574;50.534;8.500;2022-09-11T03:12:32;15.7;;;12.0;;
53674;SDS011;39574;50.534;8.500;2022-09-11T03:17:31;14.9;;;11.4;;
53674;SDS011;39574;50.534;8.500;2022-09-11T03:22:30;15.2;;;11.4;;
53674;SDS011;39574;50.534;8.500;2022-09-11T03:27:29;15.1;;;11.7;;
53674;SDS011;39574;50.534;8.500;2022-09-11T03:32:29;15.4;;;12.0;;
53674;SDS011;39574;50.534;8.500;2022-09-11T03:37:28;15.0;;;11.6;;
53674;SDS011;39574;50.534;8.500;2022-09-11T03:42:27;15.0;;;11.8;;
53674;SDS011;39574;50.534;8.500;2022-09-11T03:47:26;16.1;;;12.0;;
53674;SDS011;39574;50.534;8.500;2022-09-11T03:52:26;16.6;;;12.5;;
53674;SDS011;39574;50.534;8.500;2022-09-11T03:57:25;17.1;;;12.9;;
53674;SDS011;39574;50.534;8.500;2022-09-11T04:02:24;16.5;;;12.8;;
53674;SDS011;39574;50.534;8.500;2022-09-11T04:07:23;16.7;;;12.7;;
53674;SDS011;39574;50.534;8.500;2022-09-11T04:12:23;15.8;;;12.3;;
53674;SDS011;39574;50.534;8.500;2022-09-11T04:17:22;16.1;;;12.4;;
53674;SDS011;39574;50.534;8.500;2022-09-11T04:22:21;16.1;;;12.3;;
53674;SDS011;39574;50.534;8.500;2022-09-11T04:27:21;15.8;;;12.3;;
53674;SDS011;39574;50.534;8.500;2022-09-11T04:32:20;15.7;;;12.4;;
53674;SDS011;39574;50.534;8.500;2022-09-11T04:37:19;15.5;;;11.9;;
53674;SDS011;39574;50.534;8.500;2022-09-11T04:42:18;14.8;;;11.4;;
53674;SDS011;39574;50.534;8.500;2022-09-11T04:47:17;15.8;;;11.6;;
53674;SDS011;39574;50.534;8.500;2022-09-11T04:52:17;16.1;;;11.9;;
53674;SDS011;39574;50.534;8.500;2022-09-11T04:57:16;16.0;;;11.6;;
53674;SDS011;39574;50.534;8.500;2022-09-11T05:02:15;16.3;;;11.9;;
53674;SDS011;39574;50.534;8.500;2022-09-11T05:07:14;17.4;;;12.8;;
53674;SDS011;39574;50.534;8.500;2022-09-11T05:12:14;19.4;;;14.3;;
53674;SDS011;39574;50.534;8.500;2022-09-11T05:17:13;21.2;;;15.5;;
53674;SDS011;39574;50.534;8.500;2022-09-11T05:22:12;22.8;;;16.3;;
53674;SDS011;39574;50.534;8.500;2022-09-11T05:27:11;23.2;;;16.4;;
53674;SDS011;39574;50.534;8.500;2022-09-11T05:32:10;24.6;;;16.5;;
53674;SDS011;39574;50.534;8.500;2022-09-11T05:37:10;24.5;;;17.0;;
53674;SDS011;39574;50.534;8.500;2022-09-11T05:42:09;25.6;;;18.2;;
53674;SDS011;39574;50.534;8.500;2022-09-11T05:47:08;27.0;;;19.4;;
53674;SDS011;39574;50.534;8.500;2022-09-11T05:52:07;28.5;;;20.4;;
53674;SDS011;39574;50.534;8.500;2022-09-11T05:57:07;29.5;;;21.1;;
53674;SDS011;39574;50.534;8.500;2022-09-11T06:02:07;29.3;;;21.1;;
53674;SDS011;39574;50.534;8.500;2022-09-11T06:07:05;30.3;;;21.3;;
53674;SDS011;39574;50.534;8.500;2022-09-11T06:12:04;31.7;;;22.0;;
53674;SDS011;39574;50.534;8.500;2022-09-11T06:17:04;32.2;;;22.3;;
53674;SDS011;39574;50.534;8.500;2022-09-11T06:22:02;31.0;;;21.8;;
53674;SDS011;39574;50.534;8.500;2022-09-11T06:27:02;30.3;;;21.8;;
53674;SDS011;39574;50.534;8.500;2022-09-11T06:32:02;30.9;;;22.0;;
53674;SDS011;39574;50.534;8.500;2022-09-11T06:37:03;33.0;;;22.5;;
53674;SDS011;39574;50.534;8.500;2022-09-11T06:41:59;33.6;;;22.7;;
53674;SDS011;39574;50.534;8.500;2022-09-11T06:46:59;33.5;;;22.9;;
53674;SDS011;39574;50.534;8.500;2022-09-11T06:51:58;31.6;;;22.0;;
53674;SDS011;39574;50.534;8.500;2022-09-11T06:56:57;30.7;;;22.4;;
53674;SDS011;39574;50.534;8.500;2022-09-11T07:01:56;31.1;;;23.0;;
53674;SDS011;39574;50.534;8.500;2022-09-11T07:06:56;30.8;;;22.3;;
53674;SDS011;39574;50.534;8.500;2022-09-11T07:11:55;31.5;;;22.6;;
53674;SDS011;39574;50.534;8.500;2022-09-11T07:16:54;32.3;;;22.6;;
53674;SDS011;39574;50.534;8.500;2022-09-11T07:21:54;33.5;;;22.8;;
53674;SDS011;39574;50.534;8.500;2022-09-11T07:26:53;32.8;;;22.3;;
53674;SDS011;39574;50.534;8.500;2022-09-11T07:31:52;32.0;;;21.7;;
53674;SDS011;39574;50.534;8.500;2022-09-11T07:36:51;31.8;;;21.5;;
53674;SDS011;39574;50.534;8.500;2022-09-11T07:41:51;32.6;;;22.0;;
53674;SDS011;39574;50.534;8.500;2022-09-11T07:46:50;32.1;;;22.1;;
53674;SDS011;39574;50.534;8.500;2022-09-11T07:51:49;33.5;;;22.5;;
53674;SDS011;39574;50.534;8.500;2022-09-11T07:56:49;34.4;;;22.9;;
53674;SDS011;39574;50.534;8.500;2022-09-11T08:01:48;34.6;;;22.8;;
53674;SDS011;39574;50.534;8.500;2022-09-11T08:06:47;34.7;;;22.8;;
53674;SDS011;39574;50.534;8.500;2022-09-11T08:11:47;32.8;;;21.7;;
53674;SDS011;39574;50.534;8.500;2022-09-11T08:16:46;32.9;;;21.7;;
53674;SDS011;39574;50.534;8.500;2022-09-11T08:21:46;33.2;;;21.6;;
53674;SDS011;39574;50.534;8.500;2022-09-11T08:26:45;33.8;;;22.2;;
53674;SDS011;39574;50.534;8.500;2022-09-11T08:31:44;33.5;;;22.0;;
53674;SDS011;39574;50.534;8.500;2022-09-11T08:36:44;32.1;;;21.6;;
53674;SDS011;39574;50.534;8.500;2022-09-11T08:41:44;30.4;;;20.9;;
53674;SDS011;39574;50.534;8.500;2022-09-11T08:46:43;29.7;;;20.0;;
53674;SDS011;39574;50.534;8.500;2022-09-11T08:51:42;28.9;;;19.7;;
53674;SDS011;39574;50.534;8.500;2022-09-11T08:56:41;27.0;;;18.1;;
53674;SDS011;39574;50.534;8.500;2022-09-11T09:01:42;24.7;;;16.8;;
53674;SDS011;39574;50.534;8.500;2022-09-11T09:06:44;23.8;;;16.5;;
53674;SDS011;39574;50.534;8.500;2022-09-11T09:11:40;24.3;;;16.9;;
53674;SDS011;39574;50.534;8.500;2022-09-11T09:16:42;24.4;;;17.3;;
53674;SDS011;39574;50.534;8.500;2022-09-11T09:21:39;24.4;;;17.6;;
53674;SDS011;39574;50.534;8.500;2022-09-11T09:26:38;24.9;;;17.5;;
53674;SDS011;39574;50.534;8.500;2022-09-11T09:31:37;24.1;;;16.8;;
53674;SDS011;39574;50.534;8.500;2022-09-11T09:36:37;23.1;;;16.2;;
53674;SDS011;39574;50.534;8.500;2022-09-11T09:41:41;22.8;;;16.0;;
53674;SDS011;39574;50.534;8.500;2022-09-11T09:46:36;23.6;;;16.4;;
53674;SDS011;39574;50.534;8.500;2022-09-11T09:51:35;22.3;;;15.9;;
53674;SDS011;39574;50.534;8.500;2022-09-11T09:56:35;20.5;;;14.8;;
53674;SDS011;39574;50.534;8.500;2022-09-11T10:01:42;17.8;;;13.3;;
53674;SDS011;39574;50.534;8.500;2022-09-11T10:06:34;16.7;;;12.4;;
53674;SDS011;39574;50.534;8.500;2022-09-11T10:11:33;15.1;;;11.3;;
53674;SDS011;39574;50.534;8.500;2022-09-11T10:16:33;15.0;;;11.5;;
53674;SDS011;39574;50.534;8.500;2022-09-11T10:21:32;14.1;;;10.9;;
53674;SDS011;39574;50.534;8.500;2022-09-11T10:26:33;13.7;;;10.5;;
53674;SDS011;39574;50.534;8.500;2022-09-11T10:31:32;13.1;;;9.9;;
53674;SDS011;39574;50.534;8.500;2022-09-11T10:36:31;12.9;;;9.9;;
53674;SDS011;39574;50.534;8.500;2022-09-11T10:41:31;11.3;;;8.3;;
53674;SDS011;39574;50.534;8.500;2022-09-11T10:46:31;9.9;;;7.1;;
53674;SDS011;39574;50.534;8.500;2022-09-11T10:51:30;8.7;;;6.2;;
53674;SDS011;39574;50.534;8.500;2022-09-11T10:56:30;8.6;;;6.2;;
53674;SDS011;39574;50.534;8.500;2022-09-11T11:01:29;8.3;;;6.3;;
53674;SDS011;39574;50.534;8.500;2022-09-11T11:06:34;7.6;;;6.0;;
53674;SDS011;39574;50.534;8.500;2022-09-11T11:11:32;7.8;;;5.9;;
53674;SDS011;39574;50.534;8.500;2022-09-11T11:16:29;7.8;;;5.8;;
53674;SDS011;39574;50.534;8.500;2022-09-11T11:21:31;8.3;;;6.1;;
53674;SDS011;39574;50.534;8.500;2022-09-11T11:26:31;8.3;;;5.6;;
53674;SDS011;39574;50.534;8.500;2022-09-11T11:31:30;7.5;;;5.5;;
53674;SDS011;39574;50.534;8.500;2022-09-11T11:36:28;6.8;;;5.0;;
53674;SDS011;39574;50.534;8.500;2022-09-11T11:41:27;6.8;;;5.2;;
53674;SDS011;39574;50.534;8.500;2022-09-11T11:46:26;7.1;;;5.3;;
53674;SDS011;39574;50.534;8.500;2022-09-11T11:51:25;6.9;;;5.2;;
53674;SDS011;39574;50.534;8.500;2022-09-11T11:56:27;7.0;;;5.4;;
53674;SDS011;39574;50.534;8.500;2022-09-11T12:01:28;6.9;;;5.2;;
53674;SDS011;39574;50.534;8.500;2022-09-11T12:06:24;6.6;;;4.9;;
53674;SDS011;39574;50.534;8.500;2022-09-11T12:11:26;6.4;;;4.6;;
53674;SDS011;39574;50.534;8.500;2022-09-11T12:16:24;6.4;;;4.3;;
53674;SDS011;39574;50.534;8.500;2022-09-11T12:21:39;7.5;;;4.5;;
53674;SDS011;39574;50.534;8.500;2022-09-11T12:26:23;6.9;;;4.6;;
53674;SDS011;39574;50.534;8.500;2022-09-11T12:31:22;7.1;;;4.8;;
53674;SDS011;39574;50.534;8.500;2022-09-11T12:36:27;6.7;;;4.8;;
53674;SDS011;39574;50.534;8.500;2022-09-11T12:41:23;6.7;;;4.7;;
53674;SDS011;39574;50.534;8.500;2022-09-11T12:47:27;6.5;;;4.7;;
53674;SDS011;39574;50.534;8.500;2022-09-11T12:51:21;6.1;;;4.4;;
53674;SDS011;39574;50.534;8.500;2022-09-11T12:56:20;5.8;;;4.1;;
53674;SDS011;39574;50.534;8.500;2022-09-11T13:01:21;5.8;;;4.0;;
53674;SDS011;39574;50.534;8.500;2022-09-11T13:06:20;5.3;;;3.9;;
53674;SDS011;39574;50.534;8.500;2022-09-11T13:11:36;6.2;;;4.2;;
53674;SDS011;39574;50.534;8.500;2022-09-11T13:16:21;5.5;;;3.9;;
53674;SDS011;39574;50.534;8.500;2022-09-11T13:21:19;5.0;;;3.7;;
53674;SDS011;39574;50.534;8.500;2022-09-11T13:26:21;4.6;;;3.6;;
53674;SDS011;39574;50.534;8.500;2022-09-11T13:31:20;4.4;;;3.5;;
53674;SDS011;39574;50.534;8.500;2022-09-11T13:36:19;4.8;;;3.8;;
53674;SDS011;39574;50.534;8.500;2022-09-11T13:41:20;5.4;;;4.1;;
53674;SDS011;39574;50.534;8.500;2022-09-11T13:46:19;6.4;;;4.4;;
53674;SDS011;39574;50.534;8.500;2022-09-11T13:51:19;6.9;;;4.5;;
53674;SDS011;39574;50.534;8.500;2022-09-11T13:56:18;6.9;;;4.4;;
53674;SDS011;39574;50.534;8.500;2022-09-11T14:01:17;6.2;;;4.2;;
53674;SDS011;39574;50.534;8.500;2022-09-11T14:06:17;5.9;;;4.3;;
53674;SDS011;39574;50.534;8.500;2022-09-11T14:11:20;5.8;;;4.5;;
53674;SDS011;39574;50.534;8.500;2022-09-11T14:16:19;6.0;;;4.5;;
53674;SDS011;39574;50.534;8.500;2022-09-11T14:21:17;5.8;;;4.3;;
53674;SDS011;39574;50.534;8.500;2022-09-11T14:26:17;6.3;;;4.4;;
53674;SDS011;39574;50.534;8.500;2022-09-11T14:31:32;5.9;;;4.2;;
53674;SDS011;39574;50.534;8.500;2022-09-11T14:36:16;5.6;;;4.1;;
53674;SDS011;39574;50.534;8.500;2022-09-11T14:41:15;6.2;;;4.2;;
53674;SDS011;39574;50.534;8.500;2022-09-11T14:46:15;5.7;;;4.1;;
53674;SDS011;39574;50.534;8.500;2022-09-11T14:51:15;6.0;;;4.1;;
53674;SDS011;39574;50.534;8.500;2022-09-11T14:56:15;5.7;;;4.0;;
53674;SDS011;39574;50.534;8.500;2022-09-11T15:01:14;5.9;;;3.9;;
53674;SDS011;39574;50.534;8.500;2022-09-11T15:06:15;5.8;;;4.0;;
53674;SDS011;39574;50.534;8.500;2022-09-11T15:11:14;6.0;;;4.1;;
53674;SDS011;39574;50.534;8.500;2022-09-11T15:16:14;5.9;;;4.3;;
53674;SDS011;39574;50.534;8.500;2022-09-11T15:21:13;5.8;;;4.2;;
53674;SDS011;39574;50.534;8.500;2022-09-11T15:26:13;5.9;;;4.1;;
53674;SDS011;39574;50.534;8.500;2022-09-11T15:31:13;6.0;;;4.1;;
53674;SDS011;39574;50.534;8.500;2022-09-11T15:36:13;5.6;;;3.9;;
53674;SDS011;39574;50.534;8.500;2022-09-11T15:41:12;5.5;;;3.6;;
53674;SDS011;39574;50.534;8.500;2022-09-11T15:46:12;5.3;;;3.6;;
53674;SDS011;39574;50.534;8.500;2022-09-11T15:51:12;4.9;;;3.6;;
53674;SDS011;39574;50.534;8.500;2022-09-11T15:56:12;4.7;;;3.5;;
53674;SDS011;39574;50.534;8.500;2022-09-11T16:01:15;4.5;;;3.5;;
53674;SDS011;39574;50.534;8.500;2022-09-11T16:06:11;5.0;;;3.6;;
53674;SDS011;39574;50.534;8.500;2022-09-11T16:11:11;5.5;;;3.6;;
53674;SDS011;39574;50.534;8.500;2022-09-11T16:16:10;5.7;;;3.7;;
53674;SDS011;39574;50.534;8.500;2022-09-11T16:21:10;5.8;;;3.8;;
53674;SDS011;39574;50.534;8.500;2022-09-11T16:26:11;6.0;;;3.8;;
53674;SDS011;39574;50.534;8.500;2022-09-11T16:31:09;5.8;;;3.8;;
53674;SDS011;39574;50.534;8.500;2022-09-11T16:36:10;5.7;;;4.0;;
53674;SDS011;39574;50.534;8.500;2022-09-11T16:41:09;6.4;;;4.2;;
53674;SDS011;39574;50.534;8.500;2022-09-11T16:46:08;6.3;;;4.4;;
53674;SDS011;39574;50.534;8.500;2022-09-11T16:51:07;6.7;;;4.4;;
53674;SDS011;39574;50.534;8.500;2022-09-11T16:56:08;6.3;;;4.5;;
53674;SDS011;39574;50.534;8.500;2022-09-11T17:01:07;6.0;;;4.4;;
53674;SDS011;39574;50.534;8.500;2022-09-11T17:06:06;6.0;;;4.3;;
53674;SDS011;39574;50.534;8.500;2022-09-11T17:11:06;6.0;;;4.2;;
53674;SDS011;39574;50.534;8.500;2022-09-11T17:16:06;6.7;;;4.2;;
53674;SDS011;39574;50.534;8.500;2022-09-11T17:21:05;6.1;;;4.1;;
53674;SDS011;39574;50.534;8.500;2022-09-11T17:26:04;5.5;;;4.1;;
53674;SDS011;39574;50.534;8.500;2022-09-11T17:31:05;5.2;;;4.1;;
53674;SDS011;39574;50.534;8.500;2022-09-11T17:36:04;6.2;;;4.5;;
53674;SDS011;39574;50.534;8.500;2022-09-11T17:41:03;6.4;;;4.6;;
53674;SDS011;39574;50.534;8.500;2022-09-11T17:46:03;7.6;;;5.4;;
53674;SDS011;39574;50.534;8.500;2022-09-11T17:51:03;8.9;;;6.9;;
53674;SDS011;39574;50.534;8.500;2022-09-11T17:56:03;8.2;;;6.5;;
53674;SDS011;39574;50.534;8.500;2022-09-11T18:01:02;7.6;;;5.6;;
53674;SDS011;39574;50.534;8.500;2022-09-11T18:06:03;6.6;;;5.1;;
53674;SDS011;39574;50.534;8.500;2022-09-11T18:11:00;6.5;;;4.6;;
53674;SDS011;39574;50.534;8.500;2022-09-11T18:15:59;7.3;;;5.4;;
53674;SDS011;39574;50.534;8.500;2022-09-11T18:21:02;7.2;;;5.5;;
53674;SDS011;39574;50.534;8.500;2022-09-11T18:25:58;7.2;;;5.5;;
53674;SDS011;39574;50.534;8.500;2022-09-11T18:31:03;6.4;;;5.1;;
53674;SDS011;39574;50.534;8.500;2022-09-11T18:36:00;6.1;;;4.8;;
53674;SDS011;39574;50.534;8.500;2022-09-11T18:40:56;5.9;;;4.7;;
53674;SDS011;39574;50.534;8.500;2022-09-11T18:45:59;5.7;;;4.4;;
53674;SDS011;39574;50.534;8.500;2022-09-11T18:50:55;6.1;;;4.3;;
53674;SDS011;39574;50.534;8.500;2022-09-11T18:55:58;5.9;;;4.2;;
53674;SDS011;39574;50.534;8.500;2022-09-11T19:00:54;6.1;;;4.5;;
53674;SDS011;39574;50.534;8.500;2022-09-11T19:05:53;7.5;;;5.3;;
53674;SDS011;39574;50.534;8.500;2022-09-11T19:10:53;7.9;;;5.8;;
53674;SDS011;39574;50.534;8.500;2022-09-11T19:15:53;8.5;;;6.1;;
53674;SDS011;39574;50.534;8.500;2022-09-11T19:20:55;8.2;;;5.8;;
53674;SDS011;39574;50.534;8.500;2022-09-11T19:25:51;7.1;;;5.2;;
53674;SDS011;39574;50.534;8.500;2022-09-11T19:30:54;7.3;;;5.2;;
53674;SDS011;39574;50.534;8.500;2022-09-11T19:35:52;7.8;;;5.2;;
53674;SDS011;39574;50.534;8.500;2022-09-11T19:40:49;8.1;;;5.2;;
53674;SDS011;39574;50.534;8.500;2022-09-11T19:45:49;7.9;;;5.2;;
53674;SDS011;39574;50.534;8.500;2022-09-11T19:50:48;7.4;;;5.3;;
53674;SDS011;39574;50.534;8.500;2022-09-11T19:55:51;7.3;;;5.5;;
53674;SDS011;39574;50.534;8.500;2022-09-11T20:00:47;8.3;;;5.6;;
53674;SDS011;39574;50.534;8.500;2022-09-11T20:05:46;8.5;;;5.7;;
53674;SDS011;39574;50.534;8.500;2022-09-11T20:10:46;8.7;;;5.7;;
53674;SDS011;39574;50.534;8.500;2022-09-11T20:15:45;8.8;;;5.7;;
53674;SDS011;39574;50.534;8.500;2022-09-11T20:20:45;8.6;;;5.7;;
53674;SDS011;39574;50.534;8.500;2022-09-11T20:25:43;8.1;;;5.7;;
53674;SDS011;39574;50.534;8.500;2022-09-11T20:30:43;8.1;;;5.8;;
53674;SDS011;39574;50.534;8.500;2022-09-11T20:35:42;8.1;;;5.9;;
53674;SDS011;39574;50.534;8.500;2022-09-11T20:40:41;7.5;;;5.8;;
53674;SDS011;39574;50.534;8.500;2022-09-11T20:45:41;7.7;;;5.8;;
53674;SDS011;39574;50.534;8.500;2022-09-11T20:50:40;7.7;;;5.6;;
53674;SDS011;39574;50.534;8.500;2022-09-11T20:55:39;7.5;;;5.5;;
53674;SDS011;39574;50.534;8.500;2022-09-11T21:00:41;7.8;;;5.5;;
53674;SDS011;39574;50.534;8.500;2022-09-11T21:10:37;7.5;;;5.6;;
53674;SDS011;39574;50.534;8.500;2022-09-11T21:15:40;7.0;;;5.6;;
53674;SDS011;39574;50.534;8.500;2022-09-11T21:20:36;7.2;;;5.7;;
53674;SDS011;39574;50.534;8.500;2022-09-11T21:25:37;7.6;;;5.5;;
53674;SDS011;39574;50.534;8.500;2022-09-11T21:30:36;8.1;;;5.7;;
53674;SDS011;39574;50.534;8.500;2022-09-11T21:35:34;8.2;;;5.8;;
53674;SDS011;39574;50.534;8.500;2022-09-11T21:40:33;8.0;;;5.7;;
53674;SDS011;39574;50.534;8.500;2022-09-11T21:45:32;8.0;;;5.7;;
53674;SDS011;39574;50.534;8.500;2022-09-11T21:50:31;7.9;;;5.6;;
53674;SDS011;39574;50.534;8.500;2022-09-11T21:55:34;7.6;;;5.4;;
53674;SDS011;39574;50.534;8.500;2022-09-11T22:00:30;7.8;;;5.5;;
53674;SDS011;39574;50.534;8.500;2022-09-11T22:05:29;8.2;;;5.6;;
53674;SDS011;39574;50.534;8.500;2022-09-11T22:10:28;8.6;;;5.5;;
53674;SDS011;39574;50.534;8.500;2022-09-11T22:15:28;8.4;;;5.6;;
53674;SDS011;39574;50.534;8.500;2022-09-11T22:20:27;8.4;;;5.7;;
53674;SDS011;39574;50.534;8.500;2022-09-11T22:25:26;8.5;;;5.8;;
53674;SDS011;39574;50.534;8.500;2022-09-11T22:30:25;8.9;;;5.9;;
53674;SDS011;39574;50.534;8.500;2022-09-11T22:35:25;8.5;;;5.7;;
53674;SDS011;39574;50.534;8.500;2022-09-11T22:40:24;8.1;;;5.7;;
53674;SDS011;39574;50.534;8.500;2022-09-11T22:45:23;7.7;;;5.8;;
53674;SDS011;39574;50.534;8.500;2022-09-11T22:50:23;7.6;;;5.6;;
53674;SDS011;39574;50.534;8.500;2022-09-11T22:55:22;8.2;;;5.5;;
53674;SDS011;39574;50.534;8.500;2022-09-11T23:00:21;8.5;;;5.5;;
53674;SDS011;39574;50.534;8.500;2022-09-11T23:05:20;8.6;;;5.4;;
53674;SDS011;39574;50.534;8.500;2022-09-11T23:10:19;8.1;;;5.5;;
53674;SDS011;39574;50.534;8.500;2022-09-11T23:15:19;7.8;;;5.8;;
53674;SDS011;39574;50.534;8.500;2022-09-11T23:20:18;7.6;;;5.7;;
53674;SDS011;39574;50.534;8.500;2022-09-11T23:25:17;7.9;;;5.8;;
53674;SDS011;39574;50.534;8.500;2022-09-11T23:30:16;8.1;;;5.8;;
53674;SDS011;39574;50.534;8.500;2022-09-11T23:35:15;8.4;;;6.0;;
53674;SDS011;39574;50.534;8.500;2022-09-11T23:40:15;8.4;;;5.9;;
53674;SDS011;39574;50.534;8.500;2022-09-11T23:45:14;8.6;;;6.0;;
53674;SDS011;39574;50.534;8.500;2022-09-11T23:50:13;8.9;;;6.2;;
53674;SDS011;39574;50.534;8.500;2022-09-11T23:55:12;8.8;;;6.0;;
